sensor_id;sensor_type;location;lat;lon;timestamp;temperature;humidity
28087;DHT22;15392;48.912;8.380;2023-04-25T00:02:05;15.40;47.70
28087;DHT22;15392;48.912;8.380;2023-04-25T00:04:32;15.40;47.70
28087;DHT22;15392;48.912;8.380;2023-04-25T00:06:59;15.40;48.40
28087;DHT22;15392;48.912;8.380;2023-04-25T00:09:28;15.40;47.80
28087;DHT22;15392;48.912;8.380;2023-04-25T00:11:54;15.30;47.70
28087;DHT22;15392;48.912;8.380;2023-04-25T00:14:20;15.30;47.80
28087;DHT22;15392;48.912;8.380;2023-04-25T00:16:45;15.30;47.90
28087;DHT22;15392;48.912;8.380;2023-04-25T00:19:11;15.30;48.00
28087;DHT22;15392;48.912;8.380;2023-04-25T00:21:38;15.20;47.90
28087;DHT22;15392;48.912;8.380;2023-04-25T00:24:06;15.30;48.00
28087;DHT22;15392;48.912;8.380;2023-04-25T00:26:34;15.20;48.10
28087;DHT22;15392;48.912;8.380;2023-04-25T00:29:01;15.20;48.20
28087;DHT22;15392;48.912;8.380;2023-04-25T00:31:27;15.20;48.30
28087;DHT22;15392;48.912;8.380;2023-04-25T00:33:54;15.20;48.30
28087;DHT22;15392;48.912;8.380;2023-04-25T00:36:20;15.20;48.20
28087;DHT22;15392;48.912;8.380;2023-04-25T01:05:28;15.00;48.80
28087;DHT22;15392;48.912;8.380;2023-04-25T01:07:54;14.90;48.40
28087;DHT22;15392;48.912;8.380;2023-04-25T01:10:20;14.90;48.60
28087;DHT22;15392;48.912;8.380;2023-04-25T01:12:46;14.90;48.70
28087;DHT22;15392;48.912;8.380;2023-04-25T01:15:12;14.90;48.70
28087;DHT22;15392;48.912;8.380;2023-04-25T01:17:40;14.90;48.70
28087;DHT22;15392;48.912;8.380;2023-04-25T01:20:07;14.90;48.70
28087;DHT22;15392;48.912;8.380;2023-04-25T01:22:35;14.80;48.60
28087;DHT22;15392;48.912;8.380;2023-04-25T01:25:01;14.90;48.70
28087;DHT22;15392;48.912;8.380;2023-04-25T01:27:27;14.80;48.70
28087;DHT22;15392;48.912;8.380;2023-04-25T01:29:54;14.90;48.70
28087;DHT22;15392;48.912;8.380;2023-04-25T01:32:22;14.80;48.80
28087;DHT22;15392;48.912;8.380;2023-04-25T01:34:49;14.80;48.70
28087;DHT22;15392;48.912;8.380;2023-04-25T01:37:16;14.80;48.70
28087;DHT22;15392;48.912;8.380;2023-04-25T01:39:43;14.80;48.70
28087;DHT22;15392;48.912;8.380;2023-04-25T01:42:09;14.80;48.70
28087;DHT22;15392;48.912;8.380;2023-04-25T01:44:35;14.80;48.70
28087;DHT22;15392;48.912;8.380;2023-04-25T01:47:01;14.80;48.70
28087;DHT22;15392;48.912;8.380;2023-04-25T01:49:27;14.90;48.90
28087;DHT22;15392;48.912;8.380;2023-04-25T01:51:53;14.80;48.90
28087;DHT22;15392;48.912;8.380;2023-04-25T01:54:19;14.80;48.90
28087;DHT22;15392;48.912;8.380;2023-04-25T01:56:50;14.80;48.70
28087;DHT22;15392;48.912;8.380;2023-04-25T01:59:18;14.80;49.10
28087;DHT22;15392;48.912;8.380;2023-04-25T02:01:45;14.80;49.00
28087;DHT22;15392;48.912;8.380;2023-04-25T02:04:11;14.80;48.90
28087;DHT22;15392;48.912;8.380;2023-04-25T02:06:37;14.80;48.80
28087;DHT22;15392;48.912;8.380;2023-04-25T02:09:06;14.80;49.50
28087;DHT22;15392;48.912;8.380;2023-04-25T02:11:32;14.80;49.00
28087;DHT22;15392;48.912;8.380;2023-04-25T02:13:58;14.80;48.90
28087;DHT22;15392;48.912;8.380;2023-04-25T02:16:23;14.80;48.90
28087;DHT22;15392;48.912;8.380;2023-04-25T02:18:50;14.80;49.00
28087;DHT22;15392;48.912;8.380;2023-04-25T02:21:18;14.90;49.10
28087;DHT22;15392;48.912;8.380;2023-04-25T02:23:44;14.80;49.00
28087;DHT22;15392;48.912;8.380;2023-04-25T02:26:14;14.80;49.30
28087;DHT22;15392;48.912;8.380;2023-04-25T02:28:40;14.80;49.10
28087;DHT22;15392;48.912;8.380;2023-04-25T02:31:06;14.80;49.10
28087;DHT22;15392;48.912;8.380;2023-04-25T02:33:32;14.80;49.10
28087;DHT22;15392;48.912;8.380;2023-04-25T02:35:57;14.80;49.20
28087;DHT22;15392;48.912;8.380;2023-04-25T02:38:23;14.80;49.20
28087;DHT22;15392;48.912;8.380;2023-04-25T02:40:49;14.80;49.40
28087;DHT22;15392;48.912;8.380;2023-04-25T02:43:15;14.90;49.30
28087;DHT22;15392;48.912;8.380;2023-04-25T02:45:41;14.80;49.20
28087;DHT22;15392;48.912;8.380;2023-04-25T02:48:07;14.90;49.20
28087;DHT22;15392;48.912;8.380;2023-04-25T02:50:33;14.90;49.30
28087;DHT22;15392;48.912;8.380;2023-04-25T02:52:59;14.80;49.20
28087;DHT22;15392;48.912;8.380;2023-04-25T02:55:25;14.80;49.10
28087;DHT22;15392;48.912;8.380;2023-04-25T02:57:51;14.80;49.10
28087;DHT22;15392;48.912;8.380;2023-04-25T03:00:17;14.80;49.00
28087;DHT22;15392;48.912;8.380;2023-04-25T03:02:43;14.80;49.00
28087;DHT22;15392;48.912;8.380;2023-04-25T03:05:09;14.80;49.10
28087;DHT22;15392;48.912;8.380;2023-04-25T03:07:34;14.80;48.90
28087;DHT22;15392;48.912;8.380;2023-04-25T03:10:00;14.80;48.90
28087;DHT22;15392;48.912;8.380;2023-04-25T03:12:26;14.70;49.10
28087;DHT22;15392;48.912;8.380;2023-04-25T03:14:53;14.70;49.20
28087;DHT22;15392;48.912;8.380;2023-04-25T03:17:19;14.70;49.20
28087;DHT22;15392;48.912;8.380;2023-04-25T03:19:44;14.80;49.20
28087;DHT22;15392;48.912;8.380;2023-04-25T03:22:10;14.80;49.10
28087;DHT22;15392;48.912;8.380;2023-04-25T03:24:36;14.80;49.10
28087;DHT22;15392;48.912;8.380;2023-04-25T03:27:02;14.70;49.10
28087;DHT22;15392;48.912;8.380;2023-04-25T03:29:28;14.70;49.00
28087;DHT22;15392;48.912;8.380;2023-04-25T03:31:54;14.70;49.00
28087;DHT22;15392;48.912;8.380;2023-04-25T03:34:20;14.70;49.00
28087;DHT22;15392;48.912;8.380;2023-04-25T03:36:47;14.80;48.90
28087;DHT22;15392;48.912;8.380;2023-04-25T03:39:13;14.70;49.00
28087;DHT22;15392;48.912;8.380;2023-04-25T03:41:38;14.70;49.00
28087;DHT22;15392;48.912;8.380;2023-04-25T03:44:04;14.70;48.80
28087;DHT22;15392;48.912;8.380;2023-04-25T03:46:33;14.70;48.90
28087;DHT22;15392;48.912;8.380;2023-04-25T03:48:59;14.80;49.10
28087;DHT22;15392;48.912;8.380;2023-04-25T03:51:25;14.70;49.00
28087;DHT22;15392;48.912;8.380;2023-04-25T03:53:52;14.70;49.40
28087;DHT22;15392;48.912;8.380;2023-04-25T03:56:17;14.70;50.10
28087;DHT22;15392;48.912;8.380;2023-04-25T03:58:44;14.70;50.60
28087;DHT22;15392;48.912;8.380;2023-04-25T04:01:10;14.70;51.10
28087;DHT22;15392;48.912;8.380;2023-04-25T04:03:36;14.60;51.20
28087;DHT22;15392;48.912;8.380;2023-04-25T04:06:03;14.60;51.60
28087;DHT22;15392;48.912;8.380;2023-04-25T04:08:31;14.60;51.80
28087;DHT22;15392;48.912;8.380;2023-04-25T04:10:58;14.60;52.30
28087;DHT22;15392;48.912;8.380;2023-04-25T04:13:26;14.50;51.80
28087;DHT22;15392;48.912;8.380;2023-04-25T04:15:52;14.50;52.00
28087;DHT22;15392;48.912;8.380;2023-04-25T04:18:18;14.50;51.80
28087;DHT22;15392;48.912;8.380;2023-04-25T04:20:44;14.40;51.70
28087;DHT22;15392;48.912;8.380;2023-04-25T04:23:10;14.40;51.70
28087;DHT22;15392;48.912;8.380;2023-04-25T04:25:37;14.40;51.60
28087;DHT22;15392;48.912;8.380;2023-04-25T04:28:03;14.30;51.60
28087;DHT22;15392;48.912;8.380;2023-04-25T04:30:29;14.30;51.50
28087;DHT22;15392;48.912;8.380;2023-04-25T04:32:56;14.30;51.40
28087;DHT22;15392;48.912;8.380;2023-04-25T04:35:23;14.20;51.40
28087;DHT22;15392;48.912;8.380;2023-04-25T04:37:49;14.20;51.40
28087;DHT22;15392;48.912;8.380;2023-04-25T04:40:16;14.20;51.40
28087;DHT22;15392;48.912;8.380;2023-04-25T04:42:44;14.20;51.40
28087;DHT22;15392;48.912;8.380;2023-04-25T04:45:11;14.20;51.30
28087;DHT22;15392;48.912;8.380;2023-04-25T04:47:38;14.10;51.30
28087;DHT22;15392;48.912;8.380;2023-04-25T04:50:09;14.10;51.60
28087;DHT22;15392;48.912;8.380;2023-04-25T04:52:38;14.10;51.50
28087;DHT22;15392;48.912;8.380;2023-04-25T04:55:05;14.10;51.50
28087;DHT22;15392;48.912;8.380;2023-04-25T04:57:32;14.00;51.40
28087;DHT22;15392;48.912;8.380;2023-04-25T04:59:58;14.00;51.30
28087;DHT22;15392;48.912;8.380;2023-04-25T05:02:25;14.00;51.40
28087;DHT22;15392;48.912;8.380;2023-04-25T05:04:51;14.00;51.30
28087;DHT22;15392;48.912;8.380;2023-04-25T05:07:18;14.00;51.50
28087;DHT22;15392;48.912;8.380;2023-04-25T05:09:44;13.90;51.40
28087;DHT22;15392;48.912;8.380;2023-04-25T05:12:10;13.90;51.50
28087;DHT22;15392;48.912;8.380;2023-04-25T05:14:36;13.90;51.40
28087;DHT22;15392;48.912;8.380;2023-04-25T05:17:02;13.90;51.40
28087;DHT22;15392;48.912;8.380;2023-04-25T05:19:32;13.90;51.50
28087;DHT22;15392;48.912;8.380;2023-04-25T05:21:58;13.90;51.40
28087;DHT22;15392;48.912;8.380;2023-04-25T05:24:24;13.90;51.40
28087;DHT22;15392;48.912;8.380;2023-04-25T05:26:49;13.80;51.40
28087;DHT22;15392;48.912;8.380;2023-04-25T05:29:15;13.80;51.50
28087;DHT22;15392;48.912;8.380;2023-04-25T05:31:41;13.80;51.30
28087;DHT22;15392;48.912;8.380;2023-04-25T05:34:07;13.80;51.30
28087;DHT22;15392;48.912;8.380;2023-04-25T05:36:33;13.80;51.30
28087;DHT22;15392;48.912;8.380;2023-04-25T05:38:58;13.80;51.40
28087;DHT22;15392;48.912;8.380;2023-04-25T05:41:24;13.80;51.50
28087;DHT22;15392;48.912;8.380;2023-04-25T05:43:50;13.80;51.50
28087;DHT22;15392;48.912;8.380;2023-04-25T05:46:16;13.90;51.60
28087;DHT22;15392;48.912;8.380;2023-04-25T05:48:45;13.90;51.50
28087;DHT22;15392;48.912;8.380;2023-04-25T05:51:10;13.90;51.70
28087;DHT22;15392;48.912;8.380;2023-04-25T05:53:37;13.90;52.00
28087;DHT22;15392;48.912;8.380;2023-04-25T05:56:02;13.90;52.00
28087;DHT22;15392;48.912;8.380;2023-04-25T05:58:28;13.90;52.10
28087;DHT22;15392;48.912;8.380;2023-04-25T06:00:54;13.90;52.50
28087;DHT22;15392;48.912;8.380;2023-04-25T06:03:20;13.90;52.00
28087;DHT22;15392;48.912;8.380;2023-04-25T06:05:46;13.90;52.40
28087;DHT22;15392;48.912;8.380;2023-04-25T06:08:12;13.90;51.80
28087;DHT22;15392;48.912;8.380;2023-04-25T06:10:38;13.90;51.80
28087;DHT22;15392;48.912;8.380;2023-04-25T06:13:04;13.90;52.20
28087;DHT22;15392;48.912;8.380;2023-04-25T06:15:31;13.90;51.60
28087;DHT22;15392;48.912;8.380;2023-04-25T06:17:58;13.90;51.60
28087;DHT22;15392;48.912;8.380;2023-04-25T06:20:24;13.90;51.60
28087;DHT22;15392;48.912;8.380;2023-04-25T06:22:51;13.90;51.60
28087;DHT22;15392;48.912;8.380;2023-04-25T06:25:17;14.00;51.70
28087;DHT22;15392;48.912;8.380;2023-04-25T06:27:43;13.90;51.80
28087;DHT22;15392;48.912;8.380;2023-04-25T06:30:09;14.00;51.70
28087;DHT22;15392;48.912;8.380;2023-04-25T06:32:36;14.00;51.60
28087;DHT22;15392;48.912;8.380;2023-04-25T06:35:02;14.00;51.70
28087;DHT22;15392;48.912;8.380;2023-04-25T06:37:32;14.00;51.70
28087;DHT22;15392;48.912;8.380;2023-04-25T06:39:58;14.00;51.60
28087;DHT22;15392;48.912;8.380;2023-04-25T06:42:24;14.00;51.50
28087;DHT22;15392;48.912;8.380;2023-04-25T06:44:50;14.10;51.50
28087;DHT22;15392;48.912;8.380;2023-04-25T06:47:15;14.10;52.00
28087;DHT22;15392;48.912;8.380;2023-04-25T06:49:41;14.10;51.70
28087;DHT22;15392;48.912;8.380;2023-04-25T06:52:07;14.10;51.60
28087;DHT22;15392;48.912;8.380;2023-04-25T06:54:33;14.10;51.60
28087;DHT22;15392;48.912;8.380;2023-04-25T06:57:00;14.10;51.80
28087;DHT22;15392;48.912;8.380;2023-04-25T06:59:26;14.10;51.80
28087;DHT22;15392;48.912;8.380;2023-04-25T07:01:52;14.10;51.70
28087;DHT22;15392;48.912;8.380;2023-04-25T07:04:18;14.10;51.80
28087;DHT22;15392;48.912;8.380;2023-04-25T07:06:44;14.10;51.70
28087;DHT22;15392;48.912;8.380;2023-04-25T07:09:10;14.00;51.80
28087;DHT22;15392;48.912;8.380;2023-04-25T07:11:38;14.10;51.90
28087;DHT22;15392;48.912;8.380;2023-04-25T07:14:04;14.10;51.90
28087;DHT22;15392;48.912;8.380;2023-04-25T07:16:30;14.10;52.10
28087;DHT22;15392;48.912;8.380;2023-04-25T07:18:55;14.10;52.00
28087;DHT22;15392;48.912;8.380;2023-04-25T07:21:21;14.00;51.80
28087;DHT22;15392;48.912;8.380;2023-04-25T07:23:47;14.10;51.80
28087;DHT22;15392;48.912;8.380;2023-04-25T07:26:13;14.10;52.00
28087;DHT22;15392;48.912;8.380;2023-04-25T07:28:39;14.00;52.20
28087;DHT22;15392;48.912;8.380;2023-04-25T07:31:04;14.00;51.90
28087;DHT22;15392;48.912;8.380;2023-04-25T07:33:30;14.10;52.10
28087;DHT22;15392;48.912;8.380;2023-04-25T07:35:56;14.10;52.10
28087;DHT22;15392;48.912;8.380;2023-04-25T07:38:22;14.00;52.10
28087;DHT22;15392;48.912;8.380;2023-04-25T07:40:49;14.00;52.70
28087;DHT22;15392;48.912;8.380;2023-04-25T07:43:15;14.00;52.20
28087;DHT22;15392;48.912;8.380;2023-04-25T07:45:46;14.00;52.40
28087;DHT22;15392;48.912;8.380;2023-04-25T07:48:17;14.00;52.60
28087;DHT22;15392;48.912;8.380;2023-04-25T07:50:44;13.90;52.80
28087;DHT22;15392;48.912;8.380;2023-04-25T07:53:10;13.90;52.50
28087;DHT22;15392;48.912;8.380;2023-04-25T07:55:36;13.90;52.60
28087;DHT22;15392;48.912;8.380;2023-04-25T07:58:06;13.90;52.80
28087;DHT22;15392;48.912;8.380;2023-04-25T08:00:32;13.90;52.60
28087;DHT22;15392;48.912;8.380;2023-04-25T08:02:58;13.90;52.50
28087;DHT22;15392;48.912;8.380;2023-04-25T08:05:24;13.80;52.50
28087;DHT22;15392;48.912;8.380;2023-04-25T08:07:50;13.90;52.70
28087;DHT22;15392;48.912;8.380;2023-04-25T08:10:16;13.80;52.80
28087;DHT22;15392;48.912;8.380;2023-04-25T08:12:41;13.80;52.80
28087;DHT22;15392;48.912;8.380;2023-04-25T08:15:08;13.80;53.10
28087;DHT22;15392;48.912;8.380;2023-04-25T08:17:34;13.80;53.00
28087;DHT22;15392;48.912;8.380;2023-04-25T08:20:00;13.80;53.30
28087;DHT22;15392;48.912;8.380;2023-04-25T08:22:29;13.70;53.60
28087;DHT22;15392;48.912;8.380;2023-04-25T08:24:55;13.70;53.50
28087;DHT22;15392;48.912;8.380;2023-04-25T08:27:21;13.70;53.70
28087;DHT22;15392;48.912;8.380;2023-04-25T08:29:47;13.70;53.60
28087;DHT22;15392;48.912;8.380;2023-04-25T08:32:13;13.70;53.50
28087;DHT22;15392;48.912;8.380;2023-04-25T08:34:39;13.70;53.60
28087;DHT22;15392;48.912;8.380;2023-04-25T08:37:08;13.70;53.80
28087;DHT22;15392;48.912;8.380;2023-04-25T08:39:36;13.70;53.90
28087;DHT22;15392;48.912;8.380;2023-04-25T08:42:06;13.70;53.70
28087;DHT22;15392;48.912;8.380;2023-04-25T08:44:36;13.70;54.50
28087;DHT22;15392;48.912;8.380;2023-04-25T08:47:06;13.70;54.30
28087;DHT22;15392;48.912;8.380;2023-04-25T08:49:33;13.70;54.20
28087;DHT22;15392;48.912;8.380;2023-04-25T08:52:01;13.70;54.30
28087;DHT22;15392;48.912;8.380;2023-04-25T08:54:31;13.70;54.10
28087;DHT22;15392;48.912;8.380;2023-04-25T08:57:01;13.70;54.30
28087;DHT22;15392;48.912;8.380;2023-04-25T08:59:28;13.70;54.40
28087;DHT22;15392;48.912;8.380;2023-04-25T09:01:55;13.80;54.20
28087;DHT22;15392;48.912;8.380;2023-04-25T09:04:21;13.80;54.20
28087;DHT22;15392;48.912;8.380;2023-04-25T09:06:48;13.80;54.50
28087;DHT22;15392;48.912;8.380;2023-04-25T09:09:15;13.80;54.20
28087;DHT22;15392;48.912;8.380;2023-04-25T09:11:41;13.90;54.40
28087;DHT22;15392;48.912;8.380;2023-04-25T09:19:29;13.90;54.90
28087;DHT22;15392;48.912;8.380;2023-04-25T09:22:00;13.90;54.50
28087;DHT22;15392;48.912;8.380;2023-04-25T09:27:08;13.90;54.80
28087;DHT22;15392;48.912;8.380;2023-04-25T09:29:39;13.80;54.70
28087;DHT22;15392;48.912;8.380;2023-04-25T09:32:20;13.90;54.70
28087;DHT22;15392;48.912;8.380;2023-04-25T09:34:52;13.80;54.80
28087;DHT22;15392;48.912;8.380;2023-04-25T09:39:54;13.80;54.70
28087;DHT22;15392;48.912;8.380;2023-04-25T09:42:24;13.80;54.30
28087;DHT22;15392;48.912;8.380;2023-04-25T09:44:54;13.80;54.40
28087;DHT22;15392;48.912;8.380;2023-04-25T09:47:22;13.80;54.50
28087;DHT22;15392;48.912;8.380;2023-04-25T09:49:53;13.80;54.50
28087;DHT22;15392;48.912;8.380;2023-04-25T09:52:24;13.70;54.30
28087;DHT22;15392;48.912;8.380;2023-04-25T09:54:51;13.70;54.50
28087;DHT22;15392;48.912;8.380;2023-04-25T09:57:24;13.70;54.20
28087;DHT22;15392;48.912;8.380;2023-04-25T09:59:54;13.70;54.40
28087;DHT22;15392;48.912;8.380;2023-04-25T10:02:23;13.70;54.70
28087;DHT22;15392;48.912;8.380;2023-04-25T10:04:53;13.70;54.50
28087;DHT22;15392;48.912;8.380;2023-04-25T10:07:26;13.70;54.60
28087;DHT22;15392;48.912;8.380;2023-04-25T10:10:00;13.80;55.00
28087;DHT22;15392;48.912;8.380;2023-04-25T10:12:30;13.80;55.10
28087;DHT22;15392;48.912;8.380;2023-04-25T10:14:58;13.80;54.70
28087;DHT22;15392;48.912;8.380;2023-04-25T10:17:24;13.80;54.80
28087;DHT22;15392;48.912;8.380;2023-04-25T10:19:54;13.80;55.60
28087;DHT22;15392;48.912;8.380;2023-04-25T10:22:41;13.80;54.80
28087;DHT22;15392;48.912;8.380;2023-04-25T10:25:08;13.80;55.00
28087;DHT22;15392;48.912;8.380;2023-04-25T10:27:35;13.80;54.60
28087;DHT22;15392;48.912;8.380;2023-04-25T10:32:44;13.80;54.80
28087;DHT22;15392;48.912;8.380;2023-04-25T10:35:17;13.80;54.60
28087;DHT22;15392;48.912;8.380;2023-04-25T10:38:04;13.80;54.40
28087;DHT22;15392;48.912;8.380;2023-04-25T10:40:34;13.80;55.10
28087;DHT22;15392;48.912;8.380;2023-04-25T10:45:59;13.60;54.50
28087;DHT22;15392;48.912;8.380;2023-04-25T10:48:30;13.60;53.80
28087;DHT22;15392;48.912;8.380;2023-04-25T10:51:23;13.50;53.90
28087;DHT22;15392;48.912;8.380;2023-04-25T10:53:59;13.40;54.50
28087;DHT22;15392;48.912;8.380;2023-04-25T10:56:31;13.30;54.00
28087;DHT22;15392;48.912;8.380;2023-04-25T10:59:08;13.20;54.00
28087;DHT22;15392;48.912;8.380;2023-04-25T11:01:45;13.20;54.00
28087;DHT22;15392;48.912;8.380;2023-04-25T11:04:24;13.10;54.20
28087;DHT22;15392;48.912;8.380;2023-04-25T11:09:38;13.10;55.00
28087;DHT22;15392;48.912;8.380;2023-04-25T11:12:07;13.00;54.30
28087;DHT22;15392;48.912;8.380;2023-04-25T11:14:35;13.00;54.70
28087;DHT22;15392;48.912;8.380;2023-04-25T11:17:01;13.00;54.90
28087;DHT22;15392;48.912;8.380;2023-04-25T11:19:28;13.00;54.90
28087;DHT22;15392;48.912;8.380;2023-04-25T11:22:01;13.10;55.00
28087;DHT22;15392;48.912;8.380;2023-04-25T11:24:33;13.00;55.10
28087;DHT22;15392;48.912;8.380;2023-04-25T11:27:00;13.00;55.10
28087;DHT22;15392;48.912;8.380;2023-04-25T11:29:31;13.10;55.50
28087;DHT22;15392;48.912;8.380;2023-04-25T11:31:58;13.10;55.00
28087;DHT22;15392;48.912;8.380;2023-04-25T11:34:26;13.10;54.90
28087;DHT22;15392;48.912;8.380;2023-04-25T11:36:53;13.10;55.00
28087;DHT22;15392;48.912;8.380;2023-04-25T11:39:20;13.10;54.90
28087;DHT22;15392;48.912;8.380;2023-04-25T11:41:46;13.10;54.80
28087;DHT22;15392;48.912;8.380;2023-04-25T11:44:15;13.10;54.70
28087;DHT22;15392;48.912;8.380;2023-04-25T11:46:43;13.20;54.80
28087;DHT22;15392;48.912;8.380;2023-04-25T11:49:13;13.20;54.80
28087;DHT22;15392;48.912;8.380;2023-04-25T11:51:45;13.20;55.00
28087;DHT22;15392;48.912;8.380;2023-04-25T11:54:12;13.20;54.90
28087;DHT22;15392;48.912;8.380;2023-04-25T11:56:43;13.30;54.80
28087;DHT22;15392;48.912;8.380;2023-04-25T11:59:09;13.30;55.10
28087;DHT22;15392;48.912;8.380;2023-04-25T12:01:37;13.40;55.00
28087;DHT22;15392;48.912;8.380;2023-04-25T12:04:18;13.40;55.10
28087;DHT22;15392;48.912;8.380;2023-04-25T12:06:50;13.40;55.40
28087;DHT22;15392;48.912;8.380;2023-04-25T12:12:45;13.60;55.20
28087;DHT22;15392;48.912;8.380;2023-04-25T12:15:28;13.60;54.40
28087;DHT22;15392;48.912;8.380;2023-04-25T12:17:54;13.60;54.40
28087;DHT22;15392;48.912;8.380;2023-04-25T12:20:24;13.60;54.10
28087;DHT22;15392;48.912;8.380;2023-04-25T12:22:53;13.60;54.10
28087;DHT22;15392;48.912;8.380;2023-04-25T12:25:38;13.70;54.00
28087;DHT22;15392;48.912;8.380;2023-04-25T12:28:20;13.70;54.50
28087;DHT22;15392;48.912;8.380;2023-04-25T12:33:24;13.70;53.90
28087;DHT22;15392;48.912;8.380;2023-04-25T12:35:52;13.70;53.70
28087;DHT22;15392;48.912;8.380;2023-04-25T12:40:51;13.70;53.90
28087;DHT22;15392;48.912;8.380;2023-04-25T12:43:18;13.70;53.90
28087;DHT22;15392;48.912;8.380;2023-04-25T12:45:54;13.70;53.90
28087;DHT22;15392;48.912;8.380;2023-04-25T12:48:21;13.80;54.30
28087;DHT22;15392;48.912;8.380;2023-04-25T12:50:49;13.80;54.00
28087;DHT22;15392;48.912;8.380;2023-04-25T12:53:20;13.80;54.20
28087;DHT22;15392;48.912;8.380;2023-04-25T12:55:47;13.80;53.90
28087;DHT22;15392;48.912;8.380;2023-04-25T12:58:14;13.80;53.90
28087;DHT22;15392;48.912;8.380;2023-04-25T13:00:41;13.80;53.80
28087;DHT22;15392;48.912;8.380;2023-04-25T13:03:08;13.90;53.70
28087;DHT22;15392;48.912;8.380;2023-04-25T13:05:38;13.90;53.60
28087;DHT22;15392;48.912;8.380;2023-04-25T13:08:04;13.90;53.30
28087;DHT22;15392;48.912;8.380;2023-04-25T13:10:30;13.90;54.00
28087;DHT22;15392;48.912;8.380;2023-04-25T13:12:56;13.90;53.60
28087;DHT22;15392;48.912;8.380;2023-04-25T13:15:23;13.90;53.60
28087;DHT22;15392;48.912;8.380;2023-04-25T13:17:49;13.90;53.60
28087;DHT22;15392;48.912;8.380;2023-04-25T13:20:15;13.90;53.60
28087;DHT22;15392;48.912;8.380;2023-04-25T13:22:42;13.90;53.30
28087;DHT22;15392;48.912;8.380;2023-04-25T13:25:08;14.00;53.30
28087;DHT22;15392;48.912;8.380;2023-04-25T13:27:35;14.00;53.40
28087;DHT22;15392;48.912;8.380;2023-04-25T13:30:04;14.00;53.40
28087;DHT22;15392;48.912;8.380;2023-04-25T13:32:34;14.10;53.30
28087;DHT22;15392;48.912;8.380;2023-04-25T13:35:06;14.10;53.00
28087;DHT22;15392;48.912;8.380;2023-04-25T13:37:36;14.20;52.80
28087;DHT22;15392;48.912;8.380;2023-04-25T13:40:05;14.20;52.90
28087;DHT22;15392;48.912;8.380;2023-04-25T13:42:34;14.30;53.00
28087;DHT22;15392;48.912;8.380;2023-04-25T13:45:03;14.40;53.10
28087;DHT22;15392;48.912;8.380;2023-04-25T13:47:29;14.40;53.40
28087;DHT22;15392;48.912;8.380;2023-04-25T13:49:56;14.50;53.40
28087;DHT22;15392;48.912;8.380;2023-04-25T13:52:28;14.60;53.10
28087;DHT22;15392;48.912;8.380;2023-04-25T13:55:03;14.70;53.20
28087;DHT22;15392;48.912;8.380;2023-04-25T13:57:33;14.80;52.60
28087;DHT22;15392;48.912;8.380;2023-04-25T14:00:03;14.90;52.50
28087;DHT22;15392;48.912;8.380;2023-04-25T14:02:37;15.00;52.40
28087;DHT22;15392;48.912;8.380;2023-04-25T14:05:04;15.10;53.10
28087;DHT22;15392;48.912;8.380;2023-04-25T14:07:34;15.20;52.60
28087;DHT22;15392;48.912;8.380;2023-04-25T14:10:03;15.30;52.80
28087;DHT22;15392;48.912;8.380;2023-04-25T14:12:32;15.40;52.60
28087;DHT22;15392;48.912;8.380;2023-04-25T14:15:02;15.40;52.20
28087;DHT22;15392;48.912;8.380;2023-04-25T14:17:37;15.50;52.00
28087;DHT22;15392;48.912;8.380;2023-04-25T14:20:08;15.60;51.90
28087;DHT22;15392;48.912;8.380;2023-04-25T14:22:35;15.60;51.80
28087;DHT22;15392;48.912;8.380;2023-04-25T14:25:08;15.70;51.60
28087;DHT22;15392;48.912;8.380;2023-04-25T14:27:36;15.70;51.50
28087;DHT22;15392;48.912;8.380;2023-04-25T14:30:02;15.80;51.70
28087;DHT22;15392;48.912;8.380;2023-04-25T14:32:31;15.90;51.60
28087;DHT22;15392;48.912;8.380;2023-04-25T14:34:57;15.90;51.40
28087;DHT22;15392;48.912;8.380;2023-04-25T14:37:26;16.00;51.20
28087;DHT22;15392;48.912;8.380;2023-04-25T14:39:52;16.00;51.10
28087;DHT22;15392;48.912;8.380;2023-04-25T14:42:18;16.10;51.00
28087;DHT22;15392;48.912;8.380;2023-04-25T14:44:44;16.10;51.10
28087;DHT22;15392;48.912;8.380;2023-04-25T14:47:11;16.20;51.20
28087;DHT22;15392;48.912;8.380;2023-04-25T14:49:36;16.30;51.10
28087;DHT22;15392;48.912;8.380;2023-04-25T14:52:02;16.30;51.00
28087;DHT22;15392;48.912;8.380;2023-04-25T14:54:28;16.30;50.80
28087;DHT22;15392;48.912;8.380;2023-04-25T14:56:54;16.40;50.60
28087;DHT22;15392;48.912;8.380;2023-04-25T14:59:20;16.40;50.50
28087;DHT22;15392;48.912;8.380;2023-04-25T15:01:46;16.40;50.50
28087;DHT22;15392;48.912;8.380;2023-04-25T15:04:12;16.50;50.40
28087;DHT22;15392;48.912;8.380;2023-04-25T15:06:39;16.50;51.00
28087;DHT22;15392;48.912;8.380;2023-04-25T15:09:07;16.50;50.40
28087;DHT22;15392;48.912;8.380;2023-04-25T15:11:36;16.60;50.50
28087;DHT22;15392;48.912;8.380;2023-04-25T15:14:08;16.60;50.40
28087;DHT22;15392;48.912;8.380;2023-04-25T15:16:34;16.60;50.60
28087;DHT22;15392;48.912;8.380;2023-04-25T15:19:00;16.60;50.30
28087;DHT22;15392;48.912;8.380;2023-04-25T15:21:30;16.60;50.20
28087;DHT22;15392;48.912;8.380;2023-04-25T15:23:56;16.60;50.20
28087;DHT22;15392;48.912;8.380;2023-04-25T15:26:22;16.60;50.40
28087;DHT22;15392;48.912;8.380;2023-04-25T15:28:48;16.60;50.50
28087;DHT22;15392;48.912;8.380;2023-04-25T15:31:14;16.60;50.60
28087;DHT22;15392;48.912;8.380;2023-04-25T15:33:40;16.50;50.60
28087;DHT22;15392;48.912;8.380;2023-04-25T15:36:06;16.50;50.60
28087;DHT22;15392;48.912;8.380;2023-04-25T15:38:32;16.50;50.70
28087;DHT22;15392;48.912;8.380;2023-04-25T15:40:58;16.50;50.70
28087;DHT22;15392;48.912;8.380;2023-04-25T15:43:24;16.50;50.90
28087;DHT22;15392;48.912;8.380;2023-04-25T15:45:50;16.50;50.90
28087;DHT22;15392;48.912;8.380;2023-04-25T15:48:16;16.50;50.80
28087;DHT22;15392;48.912;8.380;2023-04-25T15:50:42;16.40;50.80
28087;DHT22;15392;48.912;8.380;2023-04-25T15:53:09;16.40;50.80
28087;DHT22;15392;48.912;8.380;2023-04-25T15:55:35;16.40;50.90
28087;DHT22;15392;48.912;8.380;2023-04-25T15:58:01;16.30;50.80
28087;DHT22;15392;48.912;8.380;2023-04-25T16:00:27;16.30;50.80
28087;DHT22;15392;48.912;8.380;2023-04-25T16:02:53;16.20;50.80
28087;DHT22;15392;48.912;8.380;2023-04-25T16:05:20;16.20;50.80
28087;DHT22;15392;48.912;8.380;2023-04-25T16:07:46;16.20;50.70
28087;DHT22;15392;48.912;8.380;2023-04-25T16:10:12;16.10;50.70
28087;DHT22;15392;48.912;8.380;2023-04-25T16:12:39;16.00;50.70
28087;DHT22;15392;48.912;8.380;2023-04-25T16:15:05;16.00;51.20
28087;DHT22;15392;48.912;8.380;2023-04-25T16:17:32;16.00;50.60
28087;DHT22;15392;48.912;8.380;2023-04-25T16:19:58;15.90;50.50
28087;DHT22;15392;48.912;8.380;2023-04-25T16:22:26;15.80;50.50
28087;DHT22;15392;48.912;8.380;2023-04-25T16:24:52;15.70;50.60
28087;DHT22;15392;48.912;8.380;2023-04-25T16:27:18;15.70;50.80